createdAt,value
2023-03-01T16:41:49.395Z,4.00
2023-03-01T16:44:16.431Z,4.10
2023-03-01T16:46:44.013Z,5.00
2023-03-01T16:49:10.775Z,4.50
2023-03-01T16:51:38.145Z,3.60
2023-03-01T16:54:04.998Z,4.70
2023-03-01T16:56:35.135Z,4.80
2023-03-01T16:59:04.438Z,4.70
2023-03-01T17:01:35.432Z,5.10
2023-03-01T17:04:02.387Z,4.50
2023-03-01T17:06:29.413Z,5.30
2023-03-01T17:08:57.475Z,7.30
2023-03-01T17:11:28.618Z,8.10
2023-03-01T17:13:56.063Z,9.50
2023-03-01T17:16:23.943Z,10.30
2023-03-01T17:18:53.600Z,9.00
2023-03-01T17:21:20.601Z,9.00
2023-03-01T17:23:49.742Z,6.30
2023-03-01T17:26:19.136Z,5.80
2023-03-01T17:28:51.337Z,6.00
2023-03-01T17:31:19.379Z,5.40
2023-03-01T17:33:46.789Z,5.00
2023-03-01T17:36:14.297Z,6.50
2023-03-01T17:38:42.601Z,6.40
2023-03-01T17:41:11.641Z,5.40
2023-03-01T17:43:38.764Z,12.30
2023-03-01T17:46:05.579Z,7.00
2023-03-01T17:48:32.397Z,5.30
2023-03-01T17:51:18.920Z,5.70
2023-03-01T17:53:45.725Z,5.70
2023-03-01T17:56:12.722Z,5.60
2023-03-01T17:58:39.484Z,5.90
2023-03-01T18:01:13.453Z,6.40
2023-03-01T18:03:41.115Z,6.40
2023-03-01T18:06:18.777Z,8.00
2023-03-01T18:08:46.499Z,6.90
2023-03-01T18:11:13.818Z,6.90
2023-03-01T18:13:43.061Z,6.80
2023-03-01T18:16:12.079Z,6.80
2023-03-01T18:18:40.167Z,5.90
2023-03-01T18:21:07.200Z,7.10
2023-03-01T18:23:34.817Z,6.70
2023-03-01T18:26:03.749Z,5.30
2023-03-01T18:28:31.740Z,6.40
2023-03-01T18:31:10.320Z,5.30
2023-03-01T18:33:39.481Z,6.10
2023-03-01T18:36:13.370Z,7.10
2023-03-01T18:38:40.058Z,6.40
2023-03-01T18:41:06.959Z,6.90
2023-03-01T18:43:35.081Z,6.70
2023-03-01T18:46:04.648Z,6.50
2023-03-01T18:48:32.564Z,9.40
2023-03-01T18:51:07.750Z,6.40
2023-03-01T18:53:34.909Z,7.80
2023-03-01T18:56:01.778Z,7.20
2023-03-01T18:58:28.819Z,7.70
2023-03-01T19:00:55.975Z,8.20
2023-03-01T19:03:22.772Z,7.60
2023-03-01T19:05:49.448Z,9.10
2023-03-01T19:08:17.407Z,7.00
2023-03-01T19:10:45.524Z,8.50
2023-03-01T19:13:12.496Z,9.30
2023-03-01T19:15:39.559Z,9.50
2023-03-01T19:18:09.024Z,9.40
2023-03-01T19:20:37.795Z,8.30
2023-03-01T19:23:05.861Z,7.30
2023-03-01T19:25:33.619Z,9.40
2023-03-01T19:28:00.327Z,7.80
2023-03-01T19:30:27.179Z,8.00
2023-03-01T19:32:53.958Z,9.10
2023-03-01T19:35:23.223Z,9.10
2023-03-01T19:37:50.663Z,8.20
2023-03-01T19:40:18.929Z,7.60
2023-03-01T19:42:45.808Z,8.30
2023-03-01T19:45:13.603Z,6.60
2023-03-01T19:47:41.073Z,6.80
2023-03-01T19:50:09.023Z,6.10
2023-03-01T19:52:40.354Z,5.90
2023-03-01T19:55:10.072Z,4.70
2023-03-01T19:57:37.072Z,5.20
2023-03-01T20:00:05.326Z,5.60
2023-03-01T20:02:39.458Z,6.30
2023-03-01T20:05:06.538Z,5.80
2023-03-01T20:07:34.908Z,4.80
2023-03-01T20:10:01.740Z,5.20
2023-03-01T20:12:29.020Z,5.90
2023-03-01T20:14:59.227Z,6.80
2023-03-01T20:17:27.876Z,6.20
2023-03-01T20:19:54.841Z,6.30
2023-03-01T20:22:25.001Z,6.30
2023-03-01T20:24:51.788Z,5.40
2023-03-01T20:27:20.869Z,5.50
2023-03-01T20:29:48.225Z,5.40
2023-03-01T20:32:14.980Z,6.80
2023-03-01T20:34:44.482Z,6.10
2023-03-01T20:37:11.504Z,6.20
2023-03-01T20:39:40.013Z,6.80
2023-03-01T20:42:07.500Z,5.60
2023-03-01T20:44:34.412Z,4.80
2023-03-01T20:47:01.125Z,5.30
2023-03-01T20:49:27.991Z,4.80
2023-03-01T20:51:54.854Z,4.20
2023-03-01T20:54:27.330Z,4.80
2023-03-01T20:56:54.804Z,5.00
2023-03-01T20:59:22.775Z,4.60
2023-03-01T21:01:51.036Z,4.40
2023-03-01T21:04:18.546Z,4.60
2023-03-01T21:06:46.469Z,4.60
2023-03-01T21:09:13.751Z,5.10
2023-03-01T21:11:40.701Z,6.00
2023-03-01T21:14:08.539Z,4.60
2023-03-01T21:16:35.832Z,5.10
2023-03-01T21:19:04.513Z,5.40
2023-03-01T21:21:32.687Z,5.90
2023-03-01T21:24:04.116Z,4.30
2023-03-01T21:26:31.089Z,4.70
2023-03-01T21:29:02.653Z,4.40
2023-03-01T21:31:33.134Z,4.40
2023-03-01T21:34:03.462Z,4.10
2023-03-01T21:36:30.893Z,3.90
2023-03-01T21:38:59.881Z,3.50
2023-03-01T21:41:29.135Z,4.00
2023-03-01T21:43:56.938Z,7.00
2023-03-01T21:46:24.544Z,3.70
2023-03-01T21:48:54.162Z,3.80
2023-03-01T21:51:21.970Z,4.30
2023-03-01T21:53:50.079Z,4.40
2023-03-01T21:56:18.655Z,4.00
2023-03-01T21:58:45.554Z,5.70
2023-03-01T22:01:14.760Z,4.20
2023-03-01T22:03:45.127Z,3.80
2023-03-01T22:06:19.567Z,4.70
2023-03-01T22:08:48.842Z,3.60
2023-03-01T22:11:17.775Z,3.90
2023-03-01T22:13:48.712Z,4.60
2023-03-01T22:16:16.088Z,4.30
2023-03-01T22:18:43.060Z,3.90
2023-03-01T22:21:10.568Z,5.80
2023-03-01T22:23:37.737Z,3.70
2023-03-01T22:26:04.549Z,4.60
2023-03-01T22:28:31.294Z,4.50
2023-03-01T22:30:59.313Z,4.30
2023-03-01T22:33:26.222Z,4.00
2023-03-01T22:35:56.072Z,3.20
2023-03-01T22:38:23.658Z,4.00
2023-03-01T22:40:58.306Z,3.60
2023-03-01T22:43:25.495Z,3.50
2023-03-01T22:45:52.289Z,4.30
2023-03-01T22:48:22.596Z,3.10
2023-03-01T22:50:49.306Z,4.50
2023-03-01T22:53:16.054Z,5.10
2023-03-01T22:55:44.238Z,5.60
2023-03-01T22:58:12.491Z,5.50
2023-03-01T23:00:39.127Z,3.60
2023-03-01T23:03:12.000Z,4.80
2023-03-01T23:05:41.144Z,4.00
2023-03-01T23:08:08.602Z,4.00
2023-03-01T23:10:40.383Z,3.80
2023-03-01T23:13:07.405Z,4.50
2023-03-01T23:15:37.365Z,5.40
2023-03-01T23:18:04.377Z,4.30
2023-03-01T23:20:35.432Z,4.60
2023-03-01T23:23:03.317Z,4.30
2023-03-01T23:25:29.969Z,5.30
2023-03-01T23:27:56.749Z,5.10
2023-03-01T23:30:23.440Z,4.00
2023-03-01T23:32:53.253Z,5.10
2023-03-01T23:35:19.996Z,4.70
2023-03-01T23:37:46.635Z,4.50
2023-03-01T23:40:13.696Z,5.70
2023-03-01T23:42:40.751Z,4.70
2023-03-01T23:45:09.578Z,6.10
2023-03-01T23:47:37.075Z,6.30
2023-03-01T23:50:05.227Z,6.00
2023-03-01T23:52:37.694Z,5.80
2023-03-01T23:55:05.374Z,5.30
2023-03-01T23:57:35.582Z,6.10
